Time;durP1;ratioP1;P1;durP2;ratioP2;P2;SDS_P1;SDS_P2;PMS_P1;PMS_P2;Temp;Humidity;BMP_temperature;BMP_pressure;BME280_temperature;BME280_humidity;BME280_pressure;Samples;Min_cycle;Max_cycle;Signal;HPM_P1;HPM_P2
2023/10/24 00:01:09;;;;;;;8.32;7.63;;;;;;;11.51;89.54;97099.56;5109139;28;20229;-80
2023/10/24 00:03:35;;;;;;;8.40;7.70;;;;;;;11.53;89.48;97097.47;5109671;28;20187;-80
2023/10/24 00:06:03;;;;;;;8.10;7.40;;;;;;;11.54;89.08;97096.41;5109751;28;20203;-80
2023/10/24 00:08:29;;;;;;;7.82;7.13;;;;;;;11.55;89.27;97089.09;5110197;28;20203;-80
2023/10/24 00:11:02;;;;;;;8.07;7.43;;;;;;;11.49;89.27;97071.06;5109804;28;20229;-80
2023/10/24 00:13:29;;;;;;;8.07;7.38;;;;;;;11.58;89.26;97065.06;5109029;28;20717;-80
2023/10/24 00:15:55;;;;;;;8.20;7.40;;;;;;;11.56;89.05;97066.38;5108602;28;20204;-80
2023/10/24 00:18:23;;;;;;;8.13;7.38;;;;;;;11.78;87.87;97075.63;5103602;28;20213;-80
2023/10/24 00:20:50;;;;;;;8.70;7.90;;;;;;;11.63;87.89;97081.47;5109911;28;20231;-80
2023/10/24 00:23:16;;;;;;;7.50;6.93;;;;;;;11.56;88.79;97079.91;5109043;28;20209;-80
2023/10/24 00:25:43;;;;;;;8.07;7.38;;;;;;;11.58;88.69;97077.78;5107580;28;20205;-80
2023/10/24 00:28:09;;;;;;;8.23;7.43;;;;;;;11.48;88.83;97080.22;5108089;28;20211;-80
2023/10/24 00:30:36;;;;;;;7.30;6.70;;;;;;;11.52;88.74;97094.97;5109375;28;20227;-80
2023/10/24 00:33:03;;;;;;;7.72;7.03;;;;;;;11.47;89.25;97092.97;5109444;28;20662;-81
2023/10/24 00:35:31;;;;;;;8.05;7.35;;;;;;;11.51;88.91;97104.16;5107881;28;20685;-80
2023/10/24 00:37:57;;;;;;;9.05;8.20;;;;;;;11.49;88.51;97101.69;5107858;28;20215;-80
2023/10/24 00:40:23;;;;;;;8.40;7.65;;;;;;;11.31;88.84;97101.75;5109461;28;20697;-79
2023/10/24 00:42:51;;;;;;;8.63;7.93;;;;;;;11.60;88.47;97102.78;5108853;28;20666;-79
2023/10/24 00:45:17;;;;;;;8.50;7.70;;;;;;;11.63;88.14;97108.56;5107058;28;20213;-80
2023/10/24 00:47:45;;;;;;;8.50;7.90;;;;;;;11.57;88.13;97109.50;5108866;28;20202;-80
2023/10/24 00:50:12;;;;;;;8.38;7.68;;;;;;;11.51;88.38;97106.88;5108456;28;20965;-80
2023/10/24 00:52:40;;;;;;;8.45;7.65;;;;;;;11.51;88.37;97093.31;5111247;28;20233;-80
2023/10/24 00:55:08;;;;;;;8.45;7.75;;;;;;;11.64;87.63;97104.81;5107990;28;20200;-79
2023/10/24 00:57:34;;;;;;;8.38;7.63;;;;;;;11.71;87.54;97096.53;5108235;28;20637;-79
2023/10/24 01:00:02;;;;;;;7.47;6.97;;;;;;;11.90;86.51;97087.31;5107224;28;20223;-79
2023/10/24 01:02:28;;;;;;;7.50;6.80;;;;;;;11.92;86.20;97090.63;5107363;28;20663;-79
2023/10/24 01:04:56;;;;;;;9.10;7.65;;;;;;;11.84;86.45;97088.25;5106809;28;20282;-81
2023/10/24 01:07:22;;;;;;;8.30;7.60;;;;;;;11.77;86.68;97092.94;5106533;28;20203;-80
2023/10/24 01:09:50;;;;;;;8.45;7.45;;;;;;;11.73;86.84;97089.00;5106257;28;20240;-79
2023/10/24 01:12:16;;;;;;;8.85;8.13;;;;;;;11.72;87.07;97087.34;5107216;28;20213;-80
2023/10/24 01:14:43;;;;;;;8.57;7.70;;;;;;;11.63;87.20;97088.78;5108040;28;20686;-80
2023/10/24 01:17:10;;;;;;;9.20;8.30;;;;;;;11.71;86.97;97085.69;5108965;28;20214;-80
2023/10/24 01:19:37;;;;;;;8.75;8.05;;;;;;;11.73;86.78;97070.03;5108770;28;20219;-80
2023/10/24 01:22:05;;;;;;;8.50;7.70;;;;;;;11.65;87.00;97056.84;5107489;28;20213;-80
2023/10/24 01:24:31;;;;;;;8.25;7.57;;;;;;;11.85;86.42;97049.22;5107438;28;20734;-80
2023/10/24 01:26:58;;;;;;;8.55;7.85;;;;;;;11.81;86.44;97049.94;5108364;28;20214;-80
2023/10/24 01:29:25;;;;;;;7.05;6.45;;;;;;;11.82;86.26;97052.41;5107664;28;20230;-80
2023/10/24 01:31:52;;;;;;;7.10;6.60;;;;;;;11.74;86.16;97055.41;5109399;28;20202;-80
2023/10/24 01:34:18;;;;;;;8.10;7.40;;;;;;;11.81;86.04;97058.06;5106759;28;20207;-80
2023/10/24 01:36:44;;;;;;;8.85;8.05;;;;;;;11.92;85.35;97057.25;5103235;28;20209;-79
2023/10/24 01:39:12;;;;;;;7.70;7.10;;;;;;;11.75;85.96;97057.06;5101603;28;20214;-80
2023/10/24 01:41:39;;;;;;;7.85;7.22;;;;;;;11.85;86.04;97059.25;5105889;28;20205;-80
2023/10/24 01:44:05;;;;;;;8.48;7.68;;;;;;;11.87;85.56;97059.84;5107789;28;20198;-80
2023/10/24 01:46:32;;;;;;;7.47;6.88;;;;;;;11.83;86.22;97062.19;5107019;28;20213;-80
2023/10/24 01:48:58;;;;;;;8.15;7.45;;;;;;;11.67;86.37;97049.31;5108712;28;20203;-80
2023/10/24 01:51:25;;;;;;;7.97;7.20;;;;;;;11.73;86.42;97056.47;5107762;28;20223;-79
2023/10/24 01:53:51;;;;;;;7.85;7.25;;;;;;;11.67;86.80;97043.88;5108541;28;20558;-80
2023/10/24 01:56:19;;;;;;;7.97;7.25;;;;;;;11.72;86.50;97030.44;5103175;28;20217;-80
2023/10/24 01:58:46;;;;;;;7.30;6.70;;;;;;;11.79;86.38;97039.31;5107623;28;20622;-80
2023/10/24 02:01:13;;;;;;;7.72;7.20;;;;;;;11.78;86.12;97040.38;5107708;28;20350;-80
2023/10/24 02:03:39;;;;;;;8.20;7.60;;;;;;;11.37;86.82;97001.41;5108018;28;20207;-80
2023/10/24 02:06:06;;;;;;;7.00;6.38;;;;;;;11.74;86.75;97041.88;5106916;28;20214;-80
2023/10/24 02:08:33;;;;;;;7.60;7.00;;;;;;;11.73;86.75;97038.31;5108166;28;20238;-80
2023/10/24 02:11:00;;;;;;;8.50;7.53;;;;;;;11.58;87.39;97037.16;5107864;28;20234;-80
2023/10/24 02:13:28;;;;;;;7.70;6.95;;;;;;;11.57;87.29;97043.63;5105579;28;20199;-80
2023/10/24 02:15:55;;;;;;;7.20;6.60;;;;;;;11.48;87.52;97045.84;5106626;28;20293;-80
2023/10/24 02:18:21;;;;;;;8.00;7.30;;;;;;;11.42;87.50;97047.59;5107302;28;20214;-80
2023/10/24 02:20:48;;;;;;;7.90;7.20;;;;;;;11.57;87.75;97055.28;5105884;28;20234;-80
2023/10/24 02:23:14;;;;;;;7.60;6.85;;;;;;;11.75;87.02;97068.75;5127427;27;20282;-80
2023/10/24 02:25:41;;;;;;;7.82;7.13;;;;;;;11.82;86.61;97074.09;5099644;28;20546;-80
2023/10/24 02:28:07;;;;;;;7.75;7.10;;;;;;;11.75;86.75;97067.91;5106726;28;20666;-80
2023/10/24 02:30:37;;;;;;;8.05;7.45;;;;;;;11.66;86.95;97061.22;5112052;28;20237;-80
2023/10/24 02:33:04;;;;;;;8.25;7.38;;;;;;;11.70;87.02;97063.19;5111146;28;20539;-80
2023/10/24 02:35:30;;;;;;;8.15;7.32;;;;;;;11.59;87.45;97063.19;5111555;28;20310;-80
2023/10/24 02:37:57;;;;;;;7.68;7.07;;;;;;;11.61;87.23;97058.38;5111856;28;20210;-80
2023/10/24 02:40:23;;;;;;;8.10;7.50;;;;;;;11.50;87.55;97049.13;5111667;28;20230;-80
2023/10/24 02:42:50;;;;;;;8.30;7.55;;;;;;;11.59;87.24;97041.50;5110915;28;20238;-80
2023/10/24 02:45:16;;;;;;;7.75;7.15;;;;;;;11.73;86.97;97048.34;5109913;28;20265;-81
2023/10/24 02:47:44;;;;;;;7.82;7.10;;;;;;;11.77;86.51;97047.69;5106966;28;20217;-80
2023/10/24 02:50:10;;;;;;;8.32;7.00;;;;;;;11.68;86.65;97061.81;5111181;28;20245;-80
2023/10/24 02:52:38;;;;;;;8.38;7.68;;;;;;;11.55;87.63;97057.41;5110723;28;20293;-80
2023/10/24 02:55:05;;;;;;;7.82;6.93;;;;;;;11.77;87.02;97060.41;5109843;28;20202;-80
2023/10/24 02:57:31;;;;;;;8.30;7.60;;;;;;;11.63;87.50;97061.66;5111548;28;20259;-80
2023/10/24 02:59:58;;;;;;;7.45;6.75;;;;;;;11.73;87.01;97064.63;5110163;28;20233;-80
2023/10/24 03:02:25;;;;;;;7.40;6.80;;;;;;;11.74;86.87;97063.56;5111246;28;20210;-80
2023/10/24 03:04:52;;;;;;;7.60;7.00;;;;;;;11.52;87.74;97067.88;5109982;28;20195;-80
2023/10/24 03:07:19;;;;;;;8.60;7.75;;;;;;;11.50;88.11;97065.41;5110809;28;20557;-80
2023/10/24 03:09:46;;;;;;;8.45;7.80;;;;;;;11.63;87.95;97067.09;5111063;28;20222;-80
2023/10/24 03:12:13;;;;;;;8.40;7.55;;;;;;;11.77;87.07;97069.38;5111095;28;20207;-80
2023/10/24 03:14:40;;;;;;;7.80;7.10;;;;;;;11.59;87.69;97071.31;5110131;28;20210;-81
2023/10/24 03:17:06;;;;;;;8.57;7.95;;;;;;;11.65;87.43;97057.66;5111298;28;20207;-80
2023/10/24 03:19:33;;;;;;;7.85;7.20;;;;;;;11.71;86.99;97055.88;5109845;28;20577;-80
2023/10/24 03:22:01;;;;;;;8.88;7.70;;;;;;;11.55;87.72;97051.97;5109771;28;20238;-80
2023/10/24 03:24:28;;;;;;;7.88;7.10;;;;;;;11.58;88.15;97045.28;5108249;28;20230;-80
2023/10/24 03:26:55;;;;;;;7.97;7.28;;;;;;;11.66;87.72;97042.22;5110951;28;20867;-80
2023/10/24 03:29:21;;;;;;;7.28;6.65;;;;;;;11.62;87.76;97041.88;5110628;28;20233;-80
2023/10/24 03:31:47;;;;;;;8.18;7.50;;;;;;;11.73;87.58;97037.50;5110052;28;20226;-80
2023/10/24 03:34:14;;;;;;;7.70;7.05;;;;;;;11.82;87.06;97032.59;5109502;28;20205;-80
2023/10/24 03:36:40;;;;;;;7.95;7.35;;;;;;;11.82;86.90;97027.19;5101936;28;20546;-80
2023/10/24 03:39:08;;;;;;;8.55;7.20;;;;;;;11.89;86.66;97020.59;5098848;28;20668;-80
2023/10/24 03:41:36;;;;;;;7.28;6.65;;;;;;;11.88;86.17;97029.78;5110378;28;20614;-80
2023/10/24 03:44:03;;;;;;;7.90;7.10;;;;;;;12.03;85.41;97032.00;5110066;28;20199;-81
2023/10/24 03:46:29;;;;;;;6.72;6.22;;;;;;;12.13;85.16;97026.00;5109580;28;20224;-81
2023/10/24 03:48:57;;;;;;;7.25;6.43;;;;;;;12.31;84.00;97025.88;5098000;28;20205;-79
2023/10/24 03:51:24;;;;;;;7.03;6.32;;;;;;;12.27;84.60;97028.25;5108959;28;20625;-79
2023/10/24 03:53:51;;;;;;;6.93;6.40;;;;;;;12.34;84.87;97028.13;5108491;28;20955;-79
2023/10/24 03:56:18;;;;;;;7.15;5.93;;;;;;;12.24;nan;97014.31;5125854;27;20654;-80
2023/10/24 03:58:45;;;;;;;7.00;6.40;;;;;;;12.23;85.32;96999.94;5110071;28;20198;-79
2023/10/24 04:01:12;;;;;;;6.20;5.43;;;;;;;12.30;84.84;96995.22;5110230;28;20225;-80
2023/10/24 04:03:39;;;;;;;5.95;5.50;;;;;;;12.34;84.47;96982.00;5110549;28;20203;-80
2023/10/24 04:06:09;;;;;;;6.45;5.32;;;;;;;12.35;84.71;96983.63;5108845;28;20298;-80
2023/10/24 04:08:36;;;;;;;6.10;5.45;;;;;;;12.53;84.27;96980.75;5109088;28;20213;-80
2023/10/24 04:11:03;;;;;;;6.43;5.20;;;;;;;12.61;83.90;96974.94;5108378;28;20234;-80
2023/10/24 04:13:30;;;;;;;5.82;5.32;;;;;;;12.63;83.33;96975.53;5108781;28;20563;-80
2023/10/24 04:16:00;;;;;;;5.95;5.35;;;;;;;12.45;84.31;96981.13;5108065;28;20673;-80
2023/10/24 04:18:27;;;;;;;6.40;5.90;;;;;;;12.53;83.71;96978.03;5108326;28;20207;-80
2023/10/24 04:20:54;;;;;;;6.00;5.40;;;;;;;12.44;84.45;96987.63;5108235;28;20484;-80
2023/10/24 04:23:20;;;;;;;6.50;6.00;;;;;;;12.18;85.13;96988.97;5108214;28;20242;-79
2023/10/24 04:25:47;;;;;;;7.15;5.60;;;;;;;12.19;85.46;96998.75;5104196;28;20201;-81
2023/10/24 04:28:14;;;;;;;5.40;5.00;;;;;;;12.34;84.93;97001.00;5100683;28;20199;-80
2023/10/24 04:30:42;;;;;;;5.90;5.40;;;;;;;12.16;85.13;96999.22;5109260;28;20629;-80
2023/10/24 04:33:09;;;;;;;6.00;5.50;;;;;;;12.41;84.18;97001.66;5108233;28;20214;-80
2023/10/24 04:35:41;;;;;;;5.97;5.43;;;;;;;12.59;83.45;96998.78;5108211;28;20227;-80
2023/10/24 04:38:07;;;;;;;7.85;5.38;;;;;;;12.33;84.52;97000.16;5106956;28;20210;-80
2023/10/24 04:40:37;;;;;;;6.55;5.95;;;;;;;12.29;84.65;96996.28;5108018;28;20219;-80
2023/10/24 04:43:03;;;;;;;5.93;5.32;;;;;;;12.31;84.48;97001.47;5107163;28;20551;-80
2023/10/24 04:45:31;;;;;;;6.32;5.82;;;;;;;12.38;84.05;97007.56;5104400;28;20206;-80
2023/10/24 04:47:59;;;;;;;7.18;6.40;;;;;;;12.34;84.54;97006.41;5109483;28;20626;-80
2023/10/24 04:50:26;;;;;;;6.60;6.00;;;;;;;12.35;84.62;97002.59;5106957;28;20227;-80
2023/10/24 04:52:53;;;;;;;6.78;6.18;;;;;;;12.37;84.42;96986.91;5106553;28;20280;-80
2023/10/24 04:55:20;;;;;;;6.93;6.22;;;;;;;12.41;83.88;96990.81;5107787;28;20286;-80
2023/10/24 04:57:47;;;;;;;6.43;5.88;;;;;;;12.14;85.32;96987.78;5106582;28;20226;-80
2023/10/24 05:00:13;;;;;;;6.20;5.70;;;;;;;12.43;83.79;96988.69;5105896;28;20214;-80
2023/10/24 05:02:40;;;;;;;6.00;5.50;;;;;;;12.50;82.95;96981.22;5108721;28;20688;-80
2023/10/24 05:05:08;;;;;;;6.20;5.70;;;;;;;12.64;82.06;96979.91;5108129;28;20207;-80
2023/10/24 05:07:36;;;;;;;5.93;5.43;;;;;;;12.60;82.04;96977.91;5107974;28;20558;-80
2023/10/24 05:10:03;;;;;;;5.50;5.03;;;;;;;12.62;82.11;96976.59;5108104;28;20227;-80
2023/10/24 05:12:30;;;;;;;5.03;4.63;;;;;;;12.54;82.75;96978.88;5108093;28;20212;-80
2023/10/24 05:14:57;;;;;;;5.40;4.90;;;;;;;12.51;83.46;96974.75;5108583;28;20207;-80
2023/10/24 05:17:23;;;;;;;6.47;5.80;;;;;;;12.56;83.87;96972.13;5107821;28;20203;-80
2023/10/24 05:19:49;;;;;;;6.40;5.82;;;;;;;12.50;84.07;96964.94;5107324;28;20469;-80
2023/10/24 05:22:17;;;;;;;5.25;4.85;;;;;;;12.60;83.15;96965.16;5107175;28;20213;-80
2023/10/24 05:24:44;;;;;;;6.30;5.80;;;;;;;12.54;83.01;96951.72;5106759;28;20218;-80
2023/10/24 05:27:10;;;;;;;6.68;5.93;;;;;;;12.69;82.66;96952.81;5107507;28;20449;-80
2023/10/24 05:29:37;;;;;;;6.50;5.90;;;;;;;12.84;81.68;96937.91;5103367;28;20297;-80
2023/10/24 05:32:04;;;;;;;5.32;4.88;;;;;;;12.79;81.46;96944.88;5108903;28;20483;-81
2023/10/24 05:34:30;;;;;;;5.30;4.90;;;;;;;12.73;81.77;96950.44;5107355;28;20551;-80
2023/10/24 05:36:57;;;;;;;5.68;5.05;;;;;;;12.79;81.04;96949.50;5107269;28;20781;-81
2023/10/24 05:39:26;;;;;;;6.10;5.60;;;;;;;12.94;80.46;96948.97;5099319;28;20249;-80
2023/10/24 05:41:53;;;;;;;6.40;5.70;;;;;;;12.89;80.14;96944.25;5107554;28;20506;-80
2023/10/24 05:44:19;;;;;;;5.88;5.30;;;;;;;12.84;80.58;96946.06;5107233;28;20213;-81
2023/10/24 05:46:46;;;;;;;6.13;5.60;;;;;;;12.39;81.80;96944.09;5108290;28;20668;-81
2023/10/24 05:49:12;;;;;;;5.47;4.97;;;;;;;12.57;82.01;96940.38;5107559;28;20233;-81
2023/10/24 05:51:39;;;;;;;7.32;5.28;;;;;;;12.79;80.48;96934.03;5106431;28;20230;-81
2023/10/24 05:54:05;;;;;;;6.63;5.90;;;;;;;12.48;81.63;96926.38;5107670;28;20228;-80
2023/10/24 05:56:33;;;;;;;5.40;4.90;;;;;;;12.51;82.14;96927.78;5110253;28;20210;-80
2023/10/24 05:59:00;;;;;;;5.85;5.28;;;;;;;12.53;81.44;96934.59;5111170;28;20206;-81
2023/10/24 06:01:26;;;;;;;7.13;5.72;;;;;;;12.62;81.46;96935.06;5111240;28;20198;-80
2023/10/24 06:03:53;;;;;;;8.35;6.03;;;;;;;12.41;82.38;96931.09;5112551;28;20543;-80
2023/10/24 06:06:19;;;;;;;6.53;5.93;;;;;;;12.38;82.74;96920.72;5107023;28;20199;-80
2023/10/24 06:08:45;;;;;;;7.10;6.47;;;;;;;12.42;82.72;96922.72;5111447;28;20229;-80
2023/10/24 06:11:15;;;;;;;6.28;5.70;;;;;;;12.30;83.32;96915.72;5110030;28;21132;-80
2023/10/24 06:13:43;;;;;;;5.93;5.43;;;;;;;12.36;82.98;96934.53;5111740;28;20745;-80
2023/10/24 06:16:11;;;;;;;6.90;6.30;;;;;;;12.25;83.05;96934.59;5111582;28;20202;-80
2023/10/24 06:18:37;;;;;;;7.28;6.60;;;;;;;12.38;82.74;96931.59;5111239;28;20207;-81
2023/10/24 06:21:05;;;;;;;6.88;6.18;;;;;;;12.29;83.38;96936.59;5111495;28;20227;-81
2023/10/24 06:23:32;;;;;;;7.00;6.38;;;;;;;12.45;82.84;96948.56;5110530;28;20268;-81
2023/10/24 06:25:58;;;;;;;6.63;6.03;;;;;;;12.40;83.03;96959.31;5110527;28;20706;-81
2023/10/24 06:28:25;;;;;;;7.80;7.20;;;;;;;12.21;82.97;96941.56;5111392;28;20633;-80
2023/10/24 06:30:57;;;;;;;6.97;6.40;;;;;;;12.24;83.92;96958.19;5110505;28;20244;-81
2023/10/24 06:33:23;;;;;;;7.88;6.55;;;;;;;12.38;83.23;96964.16;5111619;28;20203;-81
2023/10/24 06:35:50;;;;;;;7.78;6.95;;;;;;;12.38;83.19;96964.16;5110559;28;20212;-81
2023/10/24 06:38:17;;;;;;;8.60;7.75;;;;;;;12.12;83.94;96960.06;5111530;28;20302;-81
2023/10/24 06:40:45;;;;;;;8.57;6.88;;;;;;;12.18;84.47;96969.16;5110900;28;20267;-81
2023/10/24 06:43:11;;;;;;;8.43;7.55;;;;;;;12.33;83.58;96954.03;5111481;28;20551;-81
2023/10/24 06:45:38;;;;;;;7.53;6.80;;;;;;;12.42;83.35;96949.84;5111198;28;20214;-81
2023/10/24 06:48:06;;;;;;;7.80;6.97;;;;;;;12.39;83.33;96949.50;5108870;28;20209;-81
2023/10/24 06:50:33;;;;;;;7.10;6.40;;;;;;;12.47;82.92;96945.59;5110260;28;20590;-81
2023/10/24 06:52:59;;;;;;;7.47;6.70;;;;;;;12.58;82.60;96947.47;5115237;28;20293;-81
2023/10/24 06:55:26;;;;;;;7.10;6.40;;;;;;;12.26;84.26;96947.09;5121427;28;20198;-80
2023/10/24 06:57:52;;;;;;;6.95;6.25;;;;;;;12.42;83.92;96954.47;5122611;28;20317;-81
2023/10/24 07:00:21;;;;;;;7.75;6.30;;;;;;;12.43;83.88;96956.94;5114436;28;20223;-81
2023/10/24 07:02:47;;;;;;;8.02;7.32;;;;;;;12.44;84.44;96957.75;5120194;28;20331;-81
2023/10/24 07:05:15;;;;;;;7.07;6.40;;;;;;;12.55;84.08;96956.09;5110869;28;20207;-81
2023/10/24 07:07:41;;;;;;;7.63;7.00;;;;;;;12.63;84.43;96967.41;5109393;28;20646;-80
2023/10/24 07:10:09;;;;;;;6.88;6.18;;;;;;;12.64;85.06;96970.94;5107575;28;20223;-81
2023/10/24 07:12:35;;;;;;;11.20;7.80;;;;;;;12.69;84.77;96969.13;5110635;28;20226;-81
2023/10/24 07:15:03;;;;;;;8.02;7.05;;;;;;;12.64;85.84;96962.78;5111053;28;20203;-81
2023/10/24 07:17:30;;;;;;;13.43;8.52;;;;;;;12.70;86.01;96972.66;5111179;28;20251;-82
2023/10/24 07:19:58;;;;;;;10.95;7.70;;;;;;;12.46;87.62;96980.06;5109256;28;20207;-82
2023/10/24 07:22:27;;;;;;;8.10;7.40;;;;;;;12.57;87.04;96968.34;5109138;28;20249;-82
2023/10/24 07:24:53;;;;;;;8.30;7.60;;;;;;;12.50;87.56;96973.09;5109742;28;20611;-82
2023/10/24 07:27:20;;;;;;;7.78;6.93;;;;;;;12.51;86.98;96969.31;5110690;28;20198;-83
2023/10/24 07:29:47;;;;;;;8.35;7.65;;;;;;;12.39;87.44;96965.78;5108686;28;20269;-82
2023/10/24 07:32:14;;;;;;;8.43;7.72;;;;;;;12.49;87.48;96974.16;5103429;28;20438;-83
2023/10/24 07:34:41;;;;;;;9.65;7.22;;;;;;;12.44;87.81;96974.88;5110194;28;20229;-82
2023/10/24 07:37:08;;;;;;;8.45;7.85;;;;;;;12.53;87.46;96982.63;5110745;28;20202;-82
2023/10/24 07:39:36;;;;;;;8.13;7.53;;;;;;;12.56;86.96;96977.56;5110073;28;20246;-83
2023/10/24 07:42:03;;;;;;;7.80;7.20;;;;;;;12.42;87.80;96976.16;5110241;28;20204;-82
2023/10/24 07:44:29;;;;;;;8.25;7.45;;;;;;;12.36;88.18;96958.94;5109289;28;20337;-83
2023/10/24 07:46:56;;;;;;;8.00;7.22;;;;;;;12.54;87.96;96968.84;5108951;28;20217;-82
2023/10/24 07:49:22;;;;;;;8.45;7.60;;;;;;;12.52;88.69;96970.97;5110342;28;20225;-82
2023/10/24 07:51:48;;;;;;;8.80;8.07;;;;;;;12.49;88.94;96960.59;5108591;28;21023;-83
2023/10/24 07:54:15;;;;;;;8.50;7.80;;;;;;;12.58;88.72;96969.19;5109123;28;20222;-83
2023/10/24 07:56:43;;;;;;;10.27;9.43;;;;;;;12.76;87.78;96967.09;5106781;28;20605;-83
2023/10/24 07:59:10;;;;;;;9.18;8.40;;;;;;;12.82;87.31;96967.19;5110574;28;20207;-83
2023/10/24 08:01:36;;;;;;;9.43;8.32;;;;;;;12.41;88.82;96959.06;5109405;28;20632;-83
2023/10/24 08:04:03;;;;;;;10.35;9.45;;;;;;;12.77;87.28;96967.91;5109113;28;20655;-83
2023/10/24 08:06:30;;;;;;;8.57;7.85;;;;;;;12.67;88.60;96984.81;5110162;28;20204;-84
2023/10/24 08:08:56;;;;;;;8.18;7.53;;;;;;;12.43;89.82;96975.94;5110230;28;20391;-84
2023/10/24 08:11:23;;;;;;;8.90;8.30;;;;;;;12.52;88.88;96970.13;5108289;28;20246;-82
2023/10/24 08:13:50;;;;;;;9.57;8.90;;;;;;;12.39;89.80;96973.94;5103929;28;20437;-83
2023/10/24 08:16:17;;;;;;;11.07;10.18;;;;;;;12.47;89.82;96973.56;5109011;28;20194;-83
2023/10/24 08:18:45;;;;;;;9.95;9.05;;;;;;;12.49;89.72;96974.16;5109499;28;20230;-83
2023/10/24 08:21:12;;;;;;;10.55;9.65;;;;;;;12.45;89.91;96964.84;5108611;28;20203;-83
2023/10/24 08:23:39;;;;;;;10.43;9.63;;;;;;;12.48;89.80;96971.69;5109869;28;20207;-84
2023/10/24 08:26:06;;;;;;;8.80;8.05;;;;;;;12.38;88.22;96981.25;5107648;28;20213;-83
2023/10/24 08:28:32;;;;;;;9.32;8.52;;;;;;;12.30;90.03;96987.06;5109576;28;20306;-82
2023/10/24 08:31:00;;;;;;;11.60;10.05;;;;;;;12.38;89.90;96975.00;5107920;28;20211;-83
2023/10/24 08:33:28;;;;;;;10.90;10.00;;;;;;;12.13;91.57;96966.31;5108351;28;20228;-82
2023/10/24 08:35:54;;;;;;;10.45;9.50;;;;;;;12.16;91.74;96957.72;5109253;28;20751;-81
2023/10/24 08:38:22;;;;;;;11.82;10.85;;;;;;;12.15;91.98;96958.78;5107996;28;20216;-81
2023/10/24 08:40:48;;;;;;;11.20;10.10;;;;;;;12.21;92.03;96961.38;5108066;28;20293;-81
2023/10/24 08:43:16;;;;;;;10.70;9.90;;;;;;;12.20;92.32;96969.75;5105936;28;20195;-80
2023/10/24 08:45:43;;;;;;;10.90;10.05;;;;;;;12.69;89.56;96984.56;5106406;28;21066;-80
2023/10/24 08:48:11;;;;;;;11.95;10.95;;;;;;;12.64;89.82;96984.50;5107150;28;20214;-80
2023/10/24 08:50:38;;;;;;;12.25;11.15;;;;;;;12.63;90.05;96991.00;5107886;28;20224;-80
2023/10/24 08:53:05;;;;;;;21.10;11.25;;;;;;;12.37;91.59;97004.03;5107770;28;20235;-79
2023/10/24 08:55:32;;;;;;;13.07;11.07;;;;;;;12.53;90.67;96999.75;5108158;28;20214;-80
2023/10/24 08:57:58;;;;;;;11.27;10.27;;;;;;;12.54;90.33;96993.25;5108490;28;20210;-80
2023/10/24 09:00:25;;;;;;;12.00;11.02;;;;;;;12.47;91.36;96995.28;5108629;28;20233;-79
2023/10/24 09:02:51;;;;;;;14.95;13.45;;;;;;;12.49;90.88;96998.56;5108570;28;20202;-79
2023/10/24 09:05:19;;;;;;;18.35;16.50;;;;;;;12.27;91.89;96994.84;5106977;28;20666;-79
2023/10/24 09:07:46;;;;;;;19.92;18.08;;;;;;;11.88;94.42;96994.53;5107033;28;20780;-79
2023/10/24 09:10:12;;;;;;;19.70;18.10;;;;;;;11.86;95.67;96998.53;5108708;28;20219;-79
2023/10/24 09:12:39;;;;;;;18.23;16.50;;;;;;;12.02;95.17;97006.78;5107186;28;20230;-80
2023/10/24 09:15:08;;;;;;;18.10;16.63;;;;;;;11.99;95.82;96999.13;5106240;28;20215;-80
2023/10/24 09:17:35;;;;;;;20.77;18.98;;;;;;;11.89;96.23;97004.31;5106342;28;20202;-79
2023/10/24 09:20:03;;;;;;;17.90;16.35;;;;;;;12.07;96.62;97006.91;5107151;28;20223;-79
2023/10/24 09:22:31;;;;;;;21.02;19.27;;;;;;;12.07;96.26;97006.91;5108118;28;20199;-80
2023/10/24 09:24:58;;;;;;;23.17;21.08;;;;;;;12.00;96.46;97006.22;5108111;28;20221;-81
2023/10/24 09:27:27;;;;;;;26.05;23.83;;;;;;;11.90;96.59;97000.56;5108035;28;20203;-80
2023/10/24 09:29:54;;;;;;;21.33;19.38;;;;;;;12.14;96.21;96995.09;5107852;28;20233;-80
2023/10/24 09:32:21;;;;;;;23.30;21.58;;;;;;;12.19;95.78;96987.91;5108534;28;20225;-80
2023/10/24 09:34:48;;;;;;;20.80;19.10;;;;;;;12.13;96.85;96988.03;5108104;28;20206;-80
2023/10/24 09:37:15;;;;;;;23.15;21.25;;;;;;;12.28;96.25;96994.63;5106562;28;20199;-80
2023/10/24 09:39:57;;;;;;;25.05;22.83;;;;;;;11.87;96.97;96994.78;5106778;28;20788;-80
2023/10/24 09:42:25;;;;;;;22.83;20.92;;;;;;;11.76;97.84;96991.81;5108262;28;20282;-80
2023/10/24 09:44:54;;;;;;;23.00;21.00;;;;;;;11.81;98.90;96996.53;5106827;28;20207;-80
2023/10/24 09:47:20;;;;;;;26.92;24.52;;;;;;;11.85;98.17;97000.44;5107040;28;20224;-80
2023/10/24 09:49:47;;;;;;;28.23;25.42;;;;;;;11.60;99.05;97002.50;5105250;28;20225;-81
2023/10/24 09:52:13;;;;;;;20.23;18.58;;;;;;;11.85;99.63;96986.88;5106206;28;20702;-80
2023/10/24 09:54:40;;;;;;;21.02;19.33;;;;;;;11.91;100.00;97006.78;5107772;28;20199;-80
2023/10/24 09:57:09;;;;;;;27.17;24.90;;;;;;;12.04;98.33;96996.50;5108216;28;20210;-80
2023/10/24 09:59:36;;;;;;;26.80;24.42;;;;;;;11.96;98.50;96994.19;5106302;28;20312;-81
2023/10/24 10:02:04;;;;;;;25.50;23.33;;;;;;;12.04;99.48;96993.81;5102156;28;20199;-80
2023/10/24 10:04:32;;;;;;;26.95;24.63;;;;;;;12.02;97.93;97001.34;5107096;28;20601;-81
2023/10/24 10:06:59;;;;;;;27.23;24.73;;;;;;;11.92;99.59;96984.88;5105852;28;20281;-80
2023/10/24 10:09:25;;;;;;;21.85;20.15;;;;;;;11.91;99.79;96985.94;5106680;28;20229;-84
2023/10/24 10:11:53;;;;;;;26.35;23.92;;;;;;;11.95;98.67;96980.88;5105632;28;20199;-74
2023/10/24 10:14:26;;;;;;;22.27;20.10;;;;;;;12.11;99.01;96983.66;5105526;28;20226;-82
2023/10/24 10:17:01;;;;;;;19.17;17.77;;;;;;;12.18;98.30;96982.72;5108186;28;20206;-76
2023/10/24 10:19:49;;;;;;;18.38;16.67;;;;;;;12.24;98.10;96987.19;5107996;28;20229;-79
2023/10/24 10:22:30;;;;;;;17.30;15.80;;;;;;;12.06;98.58;96988.16;5105859;28;20203;-78
2023/10/24 10:25:09;;;;;;;21.67;19.77;;;;;;;12.19;98.00;96976.22;5108044;28;20202;-79
2023/10/24 10:27:40;;;;;;;17.80;16.40;;;;;;;12.15;98.42;96975.88;5107530;28;20214;-76
2023/10/24 10:30:14;;;;;;;19.85;18.15;;;;;;;12.30;97.76;96973.50;5106326;28;20582;-77
2023/10/24 10:32:47;;;;;;;16.00;14.80;;;;;;;12.41;98.25;96966.38;5107079;28;20271;-84
2023/10/24 10:35:14;;;;;;;16.33;15.02;;;;;;;12.55;97.17;96956.91;5107411;28;20655;-82
2023/10/24 10:37:40;;;;;;;14.68;13.48;;;;;;;12.72;96.24;96960.50;5108251;28;20690;-81
2023/10/24 10:40:27;;;;;;;13.85;12.75;;;;;;;12.80;95.78;96945.72;5108241;28;20215;-77
2023/10/24 10:42:54;;;;;;;14.18;13.10;;;;;;;12.85;94.23;96947.69;5111716;28;20211;-84
2023/10/24 10:45:28;;;;;;;15.20;14.00;;;;;;;12.64;95.45;96946.50;5110086;28;20574;-79
2023/10/24 10:47:58;;;;;;;13.48;12.38;;;;;;;12.58;95.82;96920.31;5109713;28;20202;-83
2023/10/24 10:50:27;;;;;;;13.98;12.68;;;;;;;12.91;94.68;96949.44;5109541;28;20280;-83
2023/10/24 10:53:00;;;;;;;13.27;12.10;;;;;;;12.96;94.21;96944.09;5110327;28;20678;-83
2023/10/24 10:55:47;;;;;;;13.65;12.25;;;;;;;12.64;96.38;96941.06;5109474;28;20201;-81
2023/10/24 10:58:22;;;;;;;16.02;14.80;;;;;;;12.56;96.67;96945.00;5110483;28;20553;-82
2023/10/24 11:01:00;;;;;;;16.42;15.02;;;;;;;12.60;96.51;96940.72;5110199;28;20202;-81
2023/10/24 11:03:44;;;;;;;16.88;15.50;;;;;;;12.73;95.63;96928.72;5110051;28;20209;-81
2023/10/24 11:06:14;;;;;;;16.15;14.85;;;;;;;12.42;96.75;96930.88;5110111;28;20199;-83
2023/10/24 11:08:41;;;;;;;18.48;16.88;;;;;;;12.15;97.47;96932.47;5111439;28;20311;-83
2023/10/24 11:11:09;;;;;;;20.42;18.63;;;;;;;12.06;98.74;96929.31;5111286;28;20299;-82
2023/10/24 11:13:38;;;;;;;16.58;15.18;;;;;;;12.27;98.54;96932.47;5111048;28;20227;-84
2023/10/24 11:16:07;;;;;;;17.58;16.20;;;;;;;12.41;97.64;96925.69;5110500;28;20553;-83
2023/10/24 11:18:34;;;;;;;21.58;19.70;;;;;;;12.52;97.10;96930.25;5110114;28;20219;-87
2023/10/24 11:21:01;;;;;;;19.08;17.23;;;;;;;12.46;97.33;96928.50;5108926;28;20377;-88
2023/10/24 11:23:27;;;;;;;15.95;14.65;;;;;;;12.43;97.34;96918.94;5109900;28;20290;-87
2023/10/24 11:25:54;;;;;;;20.13;18.30;;;;;;;12.40;97.49;96913.16;5109860;28;20205;-86
2023/10/24 11:28:21;;;;;;;17.40;15.68;;;;;;;12.51;97.05;96912.31;5108991;28;20205;-88
2023/10/24 11:30:48;;;;;;;18.85;17.35;;;;;;;12.64;97.07;96920.19;5107622;28;20213;-88